National Weather Service Raw Text Product

Displaying AFOS PIL: TAFFOD Received: 2018-12-06 10:03 UTC


971 
FTUS43 KDMX 061003 AAA
TAFFOD
TAF AMD
KFOD 061003Z 0610/0706 VRB05KT P6SM SKC
     FM061500 33008KT P6SM FEW030=